createdAt,value
2023-01-27T00:01:08.891Z,9.60
2023-01-27T00:03:35.998Z,10.13
2023-01-27T00:06:04.744Z,10.40
2023-01-27T00:08:31.815Z,12.63
2023-01-27T00:11:18.505Z,7.80
2023-01-27T00:13:45.575Z,7.63
2023-01-27T00:16:12.711Z,8.37
2023-01-27T00:18:39.656Z,8.53
2023-01-27T00:21:25.349Z,12.60
2023-01-27T00:24:10.746Z,10.30
2023-01-27T00:26:38.529Z,6.50
2023-01-27T00:29:05.517Z,8.17
2023-01-27T00:31:51.120Z,8.23
2023-01-27T00:34:19.174Z,7.97
2023-01-27T00:41:20.750Z,10.50
2023-01-27T00:43:53.549Z,12.23
2023-01-27T00:46:23.918Z,8.73
2023-01-27T00:48:52.505Z,13.30
2023-01-27T00:51:21.072Z,12.60
2023-01-27T00:53:49.087Z,13.07
2023-01-27T00:56:17.663Z,12.90
2023-01-27T00:58:44.726Z,11.40
2023-01-27T01:01:15.440Z,10.77
2023-01-27T01:03:43.785Z,15.27
2023-01-27T01:06:14.214Z,10.57
2023-01-27T01:08:41.642Z,9.37
2023-01-27T01:11:13.503Z,10.83
2023-01-27T01:13:42.576Z,9.00
2023-01-27T01:16:22.806Z,11.90
2023-01-27T01:18:50.239Z,10.17
2023-01-27T01:21:17.520Z,13.17
2023-01-27T01:23:46.167Z,9.80
2023-01-27T01:26:15.839Z,8.70
2023-01-27T01:28:44.842Z,12.40
2023-01-27T01:31:16.774Z,15.30
2023-01-27T01:33:43.836Z,8.43
2023-01-27T01:36:14.866Z,9.50
2023-01-27T01:38:42.464Z,8.20
2023-01-27T01:41:17.306Z,11.53
2023-01-27T01:43:44.477Z,12.17
2023-01-27T01:46:13.602Z,11.00
2023-01-27T01:49:00.982Z,9.70
2023-01-27T01:51:39.400Z,9.37
2023-01-27T01:54:15.056Z,8.43
2023-01-27T01:56:49.751Z,10.07
2023-01-27T01:59:47.227Z,7.87
2023-01-27T02:02:24.427Z,11.47
2023-01-27T02:05:06.378Z,9.33
2023-01-27T02:07:45.956Z,6.20
2023-01-27T02:10:13.385Z,10.90
2023-01-27T02:12:40.565Z,10.00
2023-01-27T02:15:10.277Z,7.73
2023-01-27T02:17:38.516Z,10.17
2023-01-27T02:20:42.708Z,8.43
2023-01-27T02:23:56.144Z,11.00
2023-01-27T02:26:33.827Z,8.00
2023-01-27T02:29:08.044Z,8.00
2023-01-27T02:31:35.821Z,8.13
2023-01-27T02:34:20.917Z,8.83
2023-01-27T02:36:54.401Z,9.03
2023-01-27T02:39:28.545Z,6.97
2023-01-27T02:41:57.976Z,8.00
2023-01-27T02:44:26.269Z,8.53
2023-01-27T02:46:53.331Z,7.73
2023-01-27T02:49:20.289Z,5.30
2023-01-27T02:51:47.327Z,8.10
2023-01-27T02:54:14.617Z,13.23
2023-01-27T02:56:42.462Z,9.83
2023-01-27T02:59:11.767Z,8.57
2023-01-27T03:01:41.953Z,9.87
2023-01-27T03:04:11.914Z,7.93
2023-01-27T03:06:39.391Z,8.10
2023-01-27T03:09:06.682Z,9.73
2023-01-27T03:11:52.016Z,10.70
2023-01-27T03:14:19.865Z,8.97
2023-01-27T03:17:06.468Z,8.57
2023-01-27T03:19:33.590Z,7.87
2023-01-27T03:22:03.399Z,11.57
2023-01-27T03:24:33.150Z,9.10
2023-01-27T03:27:05.201Z,12.27
2023-01-27T03:29:56.998Z,10.00
2023-01-27T03:32:30.223Z,10.33
2023-01-27T03:35:17.638Z,11.97
2023-01-27T03:38:06.464Z,12.83
2023-01-27T03:40:53.781Z,9.23
2023-01-27T03:43:39.672Z,9.20
2023-01-27T03:46:22.413Z,11.23
2023-01-27T03:48:56.505Z,7.60
2023-01-27T03:51:25.591Z,8.70
2023-01-27T03:53:53.632Z,10.60
2023-01-27T03:56:22.335Z,9.63
2023-01-27T03:58:50.902Z,9.60
2023-01-27T04:01:24.227Z,14.30
2023-01-27T04:04:11.639Z,12.20
2023-01-27T04:07:00.801Z,9.23
2023-01-27T04:09:35.191Z,12.57
2023-01-27T04:12:07.348Z,11.27
2023-01-27T04:14:46.481Z,12.87
2023-01-27T04:17:19.801Z,13.07
2023-01-27T04:19:47.638Z,14.17
2023-01-27T04:22:16.111Z,13.00
2023-01-27T04:24:43.946Z,14.00
2023-01-27T04:27:20.396Z,16.07
2023-01-27T04:29:47.753Z,13.80
2023-01-27T04:32:15.166Z,14.30
2023-01-27T04:34:42.734Z,11.03
2023-01-27T04:37:11.023Z,15.13
2023-01-27T04:39:38.245Z,13.33
2023-01-27T04:42:05.243Z,11.93
2023-01-27T04:44:33.175Z,16.83
2023-01-27T04:47:00.292Z,14.83
2023-01-27T04:49:27.533Z,14.50
2023-01-27T04:51:55.595Z,13.07
2023-01-27T04:54:22.708Z,16.67
2023-01-27T04:57:01.013Z,14.40
2023-01-27T04:59:28.120Z,15.50
2023-01-27T05:01:55.319Z,14.30
2023-01-27T05:04:23.217Z,11.47
2023-01-27T05:06:50.570Z,12.13
2023-01-27T05:09:18.175Z,10.30
2023-01-27T05:11:45.406Z,13.23
2023-01-27T05:14:13.932Z,11.47
2023-01-27T05:16:41.009Z,14.43
2023-01-27T05:19:10.705Z,10.70
2023-01-27T05:21:37.989Z,12.10
2023-01-27T05:24:05.551Z,11.93
2023-01-27T05:26:34.384Z,14.20
2023-01-27T05:29:03.540Z,17.47
2023-01-27T05:31:32.021Z,11.40
2023-01-27T05:34:01.707Z,12.10
2023-01-27T05:36:30.399Z,11.23
2023-01-27T05:38:59.572Z,14.13
2023-01-27T05:41:31.112Z,10.60
2023-01-27T05:43:58.615Z,11.13
2023-01-27T05:46:30.231Z,12.40
2023-01-27T05:49:01.751Z,13.37
2023-01-27T05:51:39.723Z,13.77
2023-01-27T05:54:07.562Z,11.27
2023-01-27T05:56:34.462Z,12.43
2023-01-27T05:59:01.779Z,11.63
2023-01-27T06:01:33.709Z,11.63
2023-01-27T06:04:01.669Z,13.43
2023-01-27T06:06:32.161Z,10.77
2023-01-27T06:09:00.090Z,10.40
2023-01-27T06:11:27.086Z,10.47
2023-01-27T06:13:54.631Z,11.47
2023-01-27T06:16:24.102Z,11.93
2023-01-27T06:18:51.936Z,11.03
2023-01-27T06:21:20.533Z,11.70
2023-01-27T06:23:48.508Z,11.87
2023-01-27T06:26:19.979Z,11.57
2023-01-27T06:28:47.765Z,10.23
2023-01-27T06:31:19.939Z,10.13
2023-01-27T06:33:47.995Z,12.43
2023-01-27T06:36:22.229Z,12.63
2023-01-27T06:38:50.157Z,11.30
2023-01-27T06:41:18.326Z,12.00
2023-01-27T06:43:45.413Z,9.90
2023-01-27T06:46:12.814Z,12.37
2023-01-27T06:48:39.786Z,10.90
2023-01-27T06:51:08.381Z,11.70
2023-01-27T06:53:37.581Z,12.47
2023-01-27T06:56:05.301Z,11.23
2023-01-27T06:58:33.161Z,9.43
2023-01-27T07:01:00.287Z,12.03
2023-01-27T07:03:27.555Z,9.87
2023-01-27T07:05:57.266Z,10.93
2023-01-27T07:08:24.260Z,11.10
2023-01-27T07:10:51.300Z,8.87
2023-01-27T07:13:24.775Z,8.63
2023-01-27T07:15:56.660Z,10.73
2023-01-27T07:18:24.332Z,10.73
2023-01-27T07:20:52.016Z,10.77
2023-01-27T07:23:20.810Z,10.73
2023-01-27T07:25:47.984Z,9.33
2023-01-27T07:28:15.820Z,11.00
2023-01-27T07:30:47.523Z,10.23
2023-01-27T07:33:15.818Z,7.90
2023-01-27T07:35:44.313Z,7.70
2023-01-27T07:38:12.108Z,9.13
2023-01-27T07:40:39.111Z,8.13
2023-01-27T07:43:06.209Z,10.10
2023-01-27T07:45:35.040Z,9.00
2023-01-27T07:48:05.567Z,7.60
2023-01-27T07:50:33.090Z,7.87
2023-01-27T07:53:05.467Z,8.70
2023-01-27T07:55:33.773Z,7.43
2023-01-27T07:58:01.069Z,7.73
2023-01-27T08:00:29.089Z,6.63
2023-01-27T08:02:58.465Z,8.10
2023-01-27T08:05:26.497Z,8.60
2023-01-27T08:07:58.814Z,7.37
2023-01-27T08:10:27.258Z,8.47
2023-01-27T08:12:54.451Z,8.30
2023-01-27T08:15:23.527Z,6.93
2023-01-27T08:18:00.030Z,8.30
2023-01-27T08:20:28.095Z,6.50
2023-01-27T08:22:55.834Z,6.20
2023-01-27T08:25:23.228Z,6.23
2023-01-27T08:27:55.595Z,6.23
2023-01-27T08:30:23.969Z,5.50
2023-01-27T08:32:51.530Z,6.03
2023-01-27T08:35:23.515Z,5.27
2023-01-27T08:37:51.694Z,4.97
2023-01-27T08:40:23.539Z,6.43
2023-01-27T08:42:51.010Z,6.27
2023-01-27T08:45:18.491Z,5.47
2023-01-27T08:47:46.793Z,5.20
2023-01-27T08:50:14.177Z,6.20
2023-01-27T08:52:41.474Z,5.80
2023-01-27T08:55:10.040Z,5.57
2023-01-27T08:57:37.679Z,5.53
2023-01-27T09:00:07.598Z,5.33
2023-01-27T09:02:37.914Z,5.80
2023-01-27T09:05:05.753Z,5.70
2023-01-27T09:07:34.148Z,5.97
2023-01-27T09:10:13.638Z,6.60
2023-01-27T09:12:47.332Z,4.80
2023-01-27T09:15:16.124Z,5.13
2023-01-27T09:17:46.058Z,6.20
2023-01-27T09:20:14.075Z,4.73
2023-01-27T09:22:44.365Z,6.37
2023-01-27T09:25:17.486Z,5.53
2023-01-27T09:27:45.497Z,5.50
2023-01-27T09:30:16.693Z,4.87
2023-01-27T09:32:45.283Z,5.20
2023-01-27T09:35:12.810Z,5.13
2023-01-27T09:37:59.188Z,6.27
2023-01-27T09:40:41.761Z,4.27
2023-01-27T09:43:22.172Z,5.17
2023-01-27T09:46:09.685Z,4.70
2023-01-27T09:48:57.798Z,3.87
2023-01-27T09:51:48.421Z,4.40
2023-01-27T09:54:52.941Z,4.40
2023-01-27T09:57:55.159Z,5.97
2023-01-27T10:01:10.286Z,4.77
2023-01-27T10:04:28.556Z,4.17
2023-01-27T10:07:04.792Z,4.93
2023-01-27T10:09:52.825Z,3.53
2023-01-27T10:12:41.789Z,3.57
2023-01-27T10:15:45.175Z,4.13
2023-01-27T10:18:55.187Z,4.70
2023-01-27T10:21:42.534Z,5.40
2023-01-27T10:24:40.519Z,4.60
2023-01-27T10:27:23.200Z,4.00
2023-01-27T10:30:22.084Z,4.60
2023-01-27T10:33:10.721Z,5.10
2023-01-27T10:35:56.576Z,4.63
2023-01-27T10:39:04.698Z,4.60
2023-01-27T10:41:54.910Z,4.47
2023-01-27T10:45:46.907Z,4.37
2023-01-27T10:48:37.790Z,4.83
2023-01-27T10:51:13.678Z,4.93
2023-01-27T10:54:15.428Z,4.87
2023-01-27T10:57:00.740Z,4.23
2023-01-27T11:00:54.853Z,4.30
2023-01-27T11:03:45.504Z,5.10
2023-01-27T11:06:23.762Z,4.27
2023-01-27T11:08:59.990Z,3.93
2023-01-27T11:11:46.216Z,4.13
2023-01-27T11:14:54.278Z,4.23
2023-01-27T11:17:38.894Z,5.57
2023-01-27T11:20:44.609Z,4.80
2023-01-27T11:23:21.239Z,5.70
2023-01-27T11:26:23.306Z,4.63
2023-01-27T11:29:15.443Z,4.70
2023-01-27T11:32:13.314Z,4.57
2023-01-27T11:35:08.741Z,5.83
2023-01-27T11:37:41.833Z,4.93
2023-01-27T11:40:21.877Z,5.00
2023-01-27T11:42:51.766Z,4.73
2023-01-27T11:45:21.410Z,5.17
2023-01-27T11:47:58.892Z,5.63
2023-01-27T11:50:35.603Z,4.47
2023-01-27T11:53:36.725Z,5.07
2023-01-27T11:56:16.588Z,6.70
2023-01-27T11:59:06.457Z,4.27
2023-01-27T12:02:23.973Z,4.53
2023-01-27T12:05:30.146Z,4.77
2023-01-27T12:08:02.128Z,4.40
2023-01-27T12:10:46.134Z,4.37
2023-01-27T12:13:26.465Z,4.60
2023-01-27T12:16:02.838Z,4.67
2023-01-27T12:18:35.974Z,5.83
2023-01-27T12:21:10.508Z,4.40
2023-01-27T12:23:52.135Z,5.93
2023-01-27T12:26:52.337Z,4.77
2023-01-27T12:29:31.780Z,4.63
2023-01-27T12:32:01.359Z,4.93
2023-01-27T12:34:37.923Z,4.63
2023-01-27T12:37:07.678Z,5.87
2023-01-27T12:39:41.738Z,4.87
2023-01-27T12:42:41.234Z,4.60
2023-01-27T12:45:36.353Z,4.77
2023-01-27T12:48:09.386Z,5.07
2023-01-27T12:50:50.430Z,4.93
2023-01-27T12:53:27.694Z,4.60
2023-01-27T12:56:15.458Z,4.53
2023-01-27T12:58:55.312Z,4.10
2023-01-27T13:01:41.213Z,4.07
2023-01-27T13:04:21.902Z,4.00
2023-01-27T13:07:11.739Z,3.97
2023-01-27T13:09:54.513Z,5.40
2023-01-27T13:12:28.426Z,5.23
2023-01-27T13:15:25.401Z,3.73
2023-01-27T13:18:06.814Z,3.90
2023-01-27T13:20:55.512Z,4.03
2023-01-27T13:23:30.881Z,4.17
2023-01-27T13:26:13.189Z,4.40
2023-01-27T13:28:57.113Z,4.47
2023-01-27T13:31:45.909Z,4.40
2023-01-27T13:34:45.504Z,4.80
2023-01-27T13:37:28.488Z,4.93
2023-01-27T13:40:32.487Z,4.40
2023-01-27T13:43:20.547Z,5.37
2023-01-27T13:46:02.790Z,4.97
2023-01-27T13:48:51.063Z,4.70
2023-01-27T13:51:28.501Z,5.00
2023-01-27T13:54:04.788Z,4.60
2023-01-27T13:57:22.028Z,4.13
2023-01-27T14:00:15.547Z,4.70
2023-01-27T14:03:20.533Z,4.80
2023-01-27T14:06:05.970Z,4.97
2023-01-27T14:09:13.101Z,5.13
2023-01-27T14:11:52.110Z,4.40
2023-01-27T14:14:58.734Z,5.20
2023-01-27T14:17:51.040Z,4.60
2023-01-27T14:20:44.135Z,4.20
2023-01-27T14:23:45.982Z,4.40
2023-01-27T14:26:53.556Z,4.63
2023-01-27T14:30:05.315Z,3.93
2023-01-27T14:32:46.469Z,4.03
2023-01-27T14:35:57.545Z,3.80
2023-01-27T14:38:38.979Z,4.33
2023-01-27T14:41:41.849Z,4.00
2023-01-27T14:44:38.521Z,3.97
2023-01-27T14:47:24.154Z,3.27
2023-01-27T14:50:36.769Z,3.73
2023-01-27T14:53:12.527Z,3.70
2023-01-27T14:55:58.577Z,3.43
2023-01-27T14:58:55.677Z,4.13
2023-01-27T15:01:34.623Z,3.60
2023-01-27T15:05:04.350Z,4.27
2023-01-27T15:07:50.403Z,4.23
2023-01-27T15:10:28.875Z,3.87
2023-01-27T15:13:20.855Z,3.77
2023-01-27T15:16:28.936Z,3.87
2023-01-27T15:19:48.887Z,3.70
2023-01-27T15:22:53.085Z,3.40
2023-01-27T15:25:52.318Z,3.80
2023-01-27T15:28:27.992Z,3.63
2023-01-27T15:31:29.886Z,3.77
2023-01-27T15:34:26.255Z,3.47
2023-01-27T15:37:10.405Z,3.70
2023-01-27T15:40:16.958Z,3.73
2023-01-27T15:42:52.588Z,3.57
2023-01-27T15:45:30.272Z,4.00
2023-01-27T15:48:06.945Z,4.43
2023-01-27T15:50:47.054Z,4.67
2023-01-27T15:53:30.417Z,7.67
2023-01-27T15:56:01.086Z,4.17
2023-01-27T15:58:39.716Z,4.23
2023-01-27T16:01:25.583Z,4.10
2023-01-27T16:04:23.409Z,4.17
2023-01-27T16:07:04.169Z,4.90
2023-01-27T16:09:49.096Z,4.27
2023-01-27T16:12:27.685Z,5.80
2023-01-27T16:15:32.938Z,4.80
2023-01-27T16:18:25.269Z,7.30
2023-01-27T16:21:03.506Z,4.60
2023-01-27T16:23:51.275Z,5.57
2023-01-27T16:27:03.039Z,5.30
2023-01-27T16:30:25.234Z,6.47
2023-01-27T16:33:10.772Z,5.50
2023-01-27T16:36:05.305Z,5.27
2023-01-27T16:38:47.382Z,5.60
2023-01-27T16:41:28.775Z,5.60
2023-01-27T16:44:07.767Z,5.70
2023-01-27T16:46:46.392Z,6.13
2023-01-27T16:49:41.931Z,5.53
2023-01-27T16:52:24.714Z,5.27
2023-01-27T16:55:00.616Z,6.23
2023-01-27T16:57:42.985Z,5.43
2023-01-27T17:00:31.648Z,6.90
2023-01-27T17:03:05.310Z,5.53
2023-01-27T17:05:32.615Z,5.67
2023-01-27T17:08:20.582Z,4.87
2023-01-27T17:10:55.483Z,4.50
2023-01-27T17:13:45.238Z,4.93
2023-01-27T17:16:29.996Z,4.67
2023-01-27T17:19:09.709Z,5.13
2023-01-27T17:21:48.139Z,4.80
2023-01-27T17:24:28.564Z,4.67
2023-01-27T17:27:10.139Z,4.53
2023-01-27T17:29:44.886Z,4.50
2023-01-27T17:32:30.221Z,4.03
2023-01-27T17:35:01.938Z,4.03
2023-01-27T17:37:31.873Z,4.37
2023-01-27T17:40:03.747Z,4.00
2023-01-27T17:42:33.557Z,4.30
2023-01-27T17:45:27.798Z,3.73
2023-01-27T17:47:59.443Z,4.20
2023-01-27T17:50:36.467Z,3.67
2023-01-27T17:53:11.224Z,4.27
2023-01-27T17:55:39.249Z,3.80
2023-01-27T17:58:15.411Z,3.60
2023-01-27T18:00:46.674Z,3.77
2023-01-27T18:03:35.659Z,3.60
2023-01-27T18:06:06.702Z,4.40
2023-01-27T18:08:36.064Z,3.50
2023-01-27T18:11:20.259Z,3.80
2023-01-27T18:13:54.216Z,3.80
2023-01-27T18:16:24.358Z,3.77
2023-01-27T18:18:52.736Z,3.93
2023-01-27T18:21:25.991Z,4.40
2023-01-27T18:23:59.481Z,3.80
2023-01-27T18:26:32.800Z,3.80
2023-01-27T18:29:19.985Z,4.37
2023-01-27T18:31:59.543Z,4.13
2023-01-27T18:34:29.979Z,3.90
2023-01-27T18:37:23.231Z,4.50
2023-01-27T18:39:50.183Z,3.30
2023-01-27T18:42:20.880Z,3.83
2023-01-27T18:44:53.044Z,3.73
2023-01-27T18:47:25.759Z,4.20
2023-01-27T18:50:01.001Z,4.17
2023-01-27T18:52:29.604Z,4.57
2023-01-27T18:55:14.220Z,4.33
2023-01-27T18:57:41.639Z,4.27
2023-01-27T19:00:11.571Z,4.77
2023-01-27T19:02:39.949Z,4.30
2023-01-27T19:05:21.913Z,5.83
2023-01-27T19:07:50.091Z,4.30
2023-01-27T19:10:24.964Z,4.77
2023-01-27T19:12:58.420Z,6.00
2023-01-27T19:15:30.535Z,6.50
2023-01-27T19:18:00.818Z,7.43
2023-01-27T19:20:30.954Z,6.90
2023-01-27T19:22:59.240Z,7.07
2023-01-27T19:25:31.295Z,6.47
2023-01-27T19:28:05.472Z,6.43
2023-01-27T19:30:37.820Z,6.57
2023-01-27T19:33:22.777Z,6.97
2023-01-27T19:35:55.616Z,6.60
2023-01-27T19:38:26.061Z,6.90
2023-01-27T19:40:53.300Z,7.07
2023-01-27T19:43:20.794Z,7.23
2023-01-27T19:45:49.692Z,8.90
2023-01-27T19:48:20.832Z,6.60
2023-01-27T19:50:49.631Z,6.53
2023-01-27T19:53:19.164Z,7.33
2023-01-27T19:55:48.672Z,6.23
2023-01-27T19:58:27.852Z,7.40
2023-01-27T20:00:58.070Z,6.53
2023-01-27T20:03:26.034Z,7.00
2023-01-27T20:05:53.032Z,7.10
2023-01-27T20:08:21.363Z,6.87
2023-01-27T20:10:48.811Z,6.70
2023-01-27T20:13:20.799Z,6.77
2023-01-27T20:15:47.930Z,7.17
2023-01-27T20:18:17.888Z,6.87
2023-01-27T20:20:46.741Z,6.47
2023-01-27T20:23:18.291Z,6.67
2023-01-27T20:25:45.889Z,6.37
2023-01-27T20:28:13.213Z,7.60
2023-01-27T20:30:42.534Z,7.40
2023-01-27T20:33:11.121Z,7.57
2023-01-27T20:35:38.133Z,7.47
2023-01-27T20:38:05.195Z,8.03
2023-01-27T20:40:32.311Z,8.07
2023-01-27T20:43:00.806Z,7.13
2023-01-27T20:45:28.055Z,7.30
2023-01-27T20:47:56.109Z,6.60
2023-01-27T20:50:25.957Z,7.17
2023-01-27T20:52:54.270Z,6.70
2023-01-27T20:55:23.881Z,6.43
2023-01-27T20:57:50.962Z,6.03
2023-01-27T21:00:20.679Z,5.77
2023-01-27T21:02:48.587Z,5.60
2023-01-27T21:05:16.315Z,5.80
2023-01-27T21:07:44.070Z,6.20
2023-01-27T21:10:11.956Z,6.03
2023-01-27T21:12:39.023Z,6.50
2023-01-27T21:15:09.819Z,7.50
2023-01-27T21:17:37.679Z,7.53
2023-01-27T21:20:05.604Z,6.67
2023-01-27T21:22:34.506Z,7.30
2023-01-27T21:25:01.642Z,7.07
2023-01-27T21:27:28.700Z,6.60
2023-01-27T21:29:55.710Z,6.50
2023-01-27T21:32:22.782Z,7.03
2023-01-27T21:34:49.736Z,7.03
2023-01-27T21:37:17.132Z,7.40
2023-01-27T21:39:46.723Z,7.77
2023-01-27T21:42:16.849Z,8.13
2023-01-27T21:45:02.433Z,9.03
2023-01-27T21:47:29.386Z,9.73
2023-01-27T21:50:02.314Z,8.80
2023-01-27T21:52:43.155Z,8.20
2023-01-27T21:55:23.423Z,8.47
2023-01-27T21:57:53.020Z,9.77
2023-01-27T22:00:26.728Z,9.50
2023-01-27T22:03:03.190Z,8.83
2023-01-27T22:05:33.136Z,7.87
2023-01-27T22:08:02.031Z,8.90
2023-01-27T22:10:30.237Z,8.67
2023-01-27T22:12:59.899Z,8.50
2023-01-27T22:15:30.272Z,8.40
2023-01-27T22:17:58.213Z,9.90
2023-01-27T22:20:26.721Z,8.53
2023-01-27T22:22:54.095Z,9.13
2023-01-27T22:25:21.705Z,9.00
2023-01-27T22:27:48.634Z,8.80
2023-01-27T22:30:21.778Z,8.77
2023-01-27T22:32:49.676Z,9.87
2023-01-27T22:35:18.327Z,9.27
2023-01-27T22:37:47.670Z,9.47
2023-01-27T22:40:15.212Z,8.27
2023-01-27T22:42:44.807Z,10.37
2023-01-27T22:45:12.340Z,9.30
2023-01-27T22:47:39.829Z,8.67
2023-01-27T22:50:10.588Z,8.73
2023-01-27T22:52:39.154Z,8.47
2023-01-27T22:55:08.893Z,9.50
2023-01-27T22:57:36.082Z,11.60
2023-01-27T23:00:04.999Z,9.70
2023-01-27T23:02:32.480Z,9.33
2023-01-27T23:04:59.738Z,9.63
2023-01-27T23:07:26.984Z,8.40
2023-01-27T23:09:53.904Z,8.87
2023-01-27T23:12:20.949Z,8.77
2023-01-27T23:14:47.966Z,10.37
2023-01-27T23:17:15.276Z,9.13
2023-01-27T23:19:44.725Z,9.17
2023-01-27T23:22:11.765Z,9.93
2023-01-27T23:24:39.905Z,9.90
2023-01-27T23:27:06.919Z,9.57
2023-01-27T23:29:33.852Z,9.77
2023-01-27T23:32:01.021Z,9.03
2023-01-27T23:34:28.089Z,9.30
2023-01-27T23:36:55.021Z,9.07
2023-01-27T23:39:22.094Z,9.77
2023-01-27T23:41:49.142Z,9.50
2023-01-27T23:44:17.025Z,9.67
2023-01-27T23:46:44.978Z,8.87
2023-01-27T23:49:12.473Z,8.20
2023-01-27T23:51:39.810Z,7.97
2023-01-27T23:54:06.793Z,8.00
2023-01-27T23:56:33.788Z,8.13
2023-01-27T23:59:00.736Z,8.03
